Time;durP1;ratioP1;P1;durP2;ratioP2;P2;SDS_P1;SDS_P2;PMS_P1;PMS_P2;Temp;Humidity;BMP_temperature;BMP_pressure;BME280_temperature;BME280_humidity;BME280_pressure;Samples;Min_cycle;Max_cycle;Signal;HPM_P1;HPM_P2
2023/03/31 00:01:43;;;;;;;3.50;1.10;;;11.30;99.90;;;;;;5067216;28;20437;-86
2023/03/31 00:04:12;;;;;;;2.60;1.13;;;11.30;99.90;;;;;;5054818;28;20040;-86
2023/03/31 00:06:40;;;;;;;4.50;1.40;;;11.30;99.90;;;;;;5065040;28;20044;-86
2023/03/31 00:09:12;;;;;;;3.95;1.30;;;11.30;99.90;;;;;;5062548;28;20052;-86
2023/03/31 00:11:40;;;;;;;5.07;1.75;;;11.20;99.90;;;;;;5061342;28;20143;-86
2023/03/31 00:14:06;;;;;;;4.30;1.23;;;11.20;99.90;;;;;;5046019;28;20415;-86
2023/03/31 00:16:34;;;;;;;3.17;1.30;;;11.20;99.90;;;;;;5029631;28;20155;-86
2023/03/31 00:19:01;;;;;;;3.25;1.60;;;11.20;99.90;;;;;;5029866;28;20449;-87
2023/03/31 00:21:32;;;;;;;3.47;1.05;;;11.20;99.90;;;;;;5033429;28;20497;-87
2023/03/31 00:24:01;;;;;;;2.45;1.13;;;11.20;99.90;;;;;;5079829;28;20063;-87
2023/03/31 00:26:28;;;;;;;3.08;0.98;;;11.10;99.90;;;;;;5029574;28;20080;-85
2023/03/31 00:28:55;;;;;;;4.43;1.30;;;11.10;99.90;;;;;;5029506;28;20060;-84
2023/03/31 00:31:22;;;;;;;2.05;1.00;;;11.10;99.90;;;;;;5052111;28;20368;-85
2023/03/31 00:33:49;;;;;;;4.18;1.20;;;11.10;99.90;;;;;;5044014;28;20059;-84
2023/03/31 00:36:28;;;;;;;3.65;0.77;;;11.00;99.90;;;;;;5062312;28;20067;-84
2023/03/31 00:39:01;;;;;;;2.83;1.02;;;11.00;99.90;;;;;;5065678;28;20091;-84
2023/03/31 00:41:28;;;;;;;4.53;1.08;;;11.00;99.90;;;;;;5062618;28;20059;-85
2023/03/31 00:44:01;;;;;;;5.72;1.40;;;10.90;99.90;;;;;;5055274;28;20059;-83
2023/03/31 00:46:33;;;;;;;2.70;1.00;;;10.90;99.90;;;;;;5080632;28;20154;-84
2023/03/31 00:49:00;;;;;;;3.75;1.10;;;10.90;99.90;;;;;;5050511;28;20278;-84
2023/03/31 00:51:28;;;;;;;1.52;0.90;;;10.80;99.90;;;;;;5056322;28;20059;-84
2023/03/31 00:54:00;;;;;;;3.88;1.15;;;10.90;99.90;;;;;;5052933;28;20253;-83
2023/03/31 00:56:29;;;;;;;3.08;1.30;;;10.90;99.90;;;;;;5063057;28;20411;-84
2023/03/31 00:58:56;;;;;;;2.78;0.98;;;10.90;99.90;;;;;;5063639;28;20117;-84
2023/03/31 01:01:23;;;;;;;1.83;0.82;;;10.90;99.90;;;;;;5043638;28;20519;-84
2023/03/31 01:03:51;;;;;;;4.97;1.17;;;10.90;99.90;;;;;;5047920;28;20079;-84
2023/03/31 01:06:22;;;;;;;3.35;1.00;;;10.90;99.90;;;;;;5031659;28;20491;-84
2023/03/31 01:08:50;;;;;;;4.38;1.88;;;10.90;99.90;;;;;;5064534;28;20135;-84
2023/03/31 01:11:20;;;;;;;2.17;1.00;;;10.90;99.90;;;;;;5057989;28;20231;-83
2023/03/31 01:13:49;;;;;;;2.78;0.80;;;10.90;99.90;;;;;;5049439;28;20132;-84
2023/03/31 01:16:17;;;;;;;1.88;0.60;;;10.90;99.90;;;;;;5046431;28;20135;-84
2023/03/31 01:18:48;;;;;;;1.92;0.90;;;10.90;99.90;;;;;;5062327;28;20149;-83
2023/03/31 01:21:46;;;;;;;3.08;0.82;;;10.90;99.90;;;;;;5078364;28;20090;-84
2023/03/31 01:24:51;;;;;;;1.85;0.60;;;10.90;99.90;;;;;;5077469;28;20056;-85
2023/03/31 01:27:42;;;;;;;3.08;1.05;;;10.90;99.90;;;;;;5069916;28;20054;-84
2023/03/31 01:30:29;;;;;;;1.23;0.60;;;10.90;99.90;;;;;;5068908;28;20059;-84
2023/03/31 01:33:24;;;;;;;1.90;0.85;;;10.90;99.90;;;;;;4715678;28;10000964;-83
2023/03/31 01:35:57;;;;;;;2.42;0.98;;;11.00;99.90;;;;;;5076221;28;20121;-84
2023/03/31 01:38:36;;;;;;;1.55;0.80;;;11.00;99.90;;;;;;5085054;28;20048;-83
2023/03/31 01:41:03;;;;;;;2.45;0.93;;;11.00;99.90;;;;;;5083411;28;20552;-83
2023/03/31 01:43:40;;;;;;;2.38;0.80;;;11.00;99.90;;;;;;5086336;28;20043;-83
2023/03/31 01:46:13;;;;;;;2.30;1.23;;;11.00;99.90;;;;;;5050685;28;20079;-83
2023/03/31 01:48:58;;;;;;;2.13;0.70;;;11.00;99.90;;;;;;5083722;28;20124;-83
2023/03/31 01:51:35;;;;;;;3.55;1.00;;;11.10;99.90;;;;;;5077505;28;20507;-83
2023/03/31 01:54:20;;;;;;;2.33;1.02;;;11.10;99.90;;;;;;5057939;28;20428;-83
2023/03/31 01:57:02;;;;;;;2.20;1.10;;;11.10;99.90;;;;;;5066599;28;20048;-83
2023/03/31 02:00:02;;;;;;;2.00;1.02;;;11.10;99.90;;;;;;5044807;28;20094;-83
2023/03/31 02:02:31;;;;;;;3.10;1.13;;;11.10;99.90;;;;;;5055879;28;20155;-83
2023/03/31 02:04:59;;;;;;;2.88;0.90;;;11.20;99.90;;;;;;5080449;28;20048;-83
2023/03/31 02:07:32;;;;;;;3.45;1.10;;;11.10;99.90;;;;;;5068117;28;20127;-83
2023/03/31 02:10:00;;;;;;;4.83;1.67;;;11.20;99.90;;;;;;5067822;28;20529;-83
2023/03/31 02:12:28;;;;;;;3.75;1.55;;;11.10;99.90;;;;;;5048393;28;20484;-84
2023/03/31 02:14:55;;;;;;;4.78;1.45;;;11.20;99.90;;;;;;5064561;28;20051;-84
2023/03/31 02:17:29;;;;;;;4.03;1.55;;;11.20;99.90;;;;;;5085325;28;20161;-83
2023/03/31 02:19:58;;;;;;;4.10;1.98;;;11.20;99.90;;;;;;5051829;28;20072;-83
2023/03/31 02:22:25;;;;;;;2.50;1.00;;;11.20;99.90;;;;;;5082378;28;20138;-83
2023/03/31 02:24:52;;;;;;;2.47;1.05;;;11.20;99.90;;;;;;5066505;28;20056;-83
2023/03/31 02:27:24;;;;;;;4.18;1.30;;;11.10;99.90;;;;;;5060486;28;20127;-84
2023/03/31 02:29:51;;;;;;;5.85;1.83;;;11.10;99.90;;;;;;5083528;28;20052;-83
2023/03/31 02:32:22;;;;;;;5.78;1.40;;;11.10;99.90;;;;;;5033740;28;20130;-83
2023/03/31 02:34:49;;;;;;;2.53;1.48;;;11.20;99.90;;;;;;5050310;28;20062;-83
2023/03/31 02:37:15;;;;;;;4.35;1.50;;;11.20;99.90;;;;;;5099257;28;20143;-83
2023/03/31 02:39:43;;;;;;;5.63;1.98;;;11.20;99.90;;;;;;5083027;28;20044;-83
2023/03/31 02:42:10;;;;;;;3.28;1.20;;;11.10;99.90;;;;;;5066025;28;20127;-83
2023/03/31 02:44:37;;;;;;;2.10;0.93;;;11.10;99.90;;;;;;5065536;28;20580;-84
2023/03/31 02:47:06;;;;;;;2.67;1.20;;;11.10;99.90;;;;;;5087489;28;20080;-83
2023/03/31 02:49:34;;;;;;;3.42;1.17;;;11.10;99.90;;;;;;5055356;28;20546;-85
2023/03/31 02:52:29;;;;;;;1.98;1.00;;;11.10;99.90;;;;;;5041198;28;20048;-84
2023/03/31 02:55:17;;;;;;;5.35;1.92;;;11.10;99.90;;;;;;5085777;28;20387;-83
2023/03/31 02:58:12;;;;;;;5.13;1.80;;;11.00;99.90;;;;;;5041050;28;20053;-83
2023/03/31 03:01:17;;;;;;;4.57;1.90;;;11.00;99.90;;;;;;5068018;28;20056;-82
2023/03/31 03:04:17;;;;;;;4.38;1.90;;;11.00;99.90;;;;;;5086806;28;20093;-83
2023/03/31 03:06:52;;;;;;;8.48;2.85;;;10.90;99.90;;;;;;5065297;28;20079;-83
2023/03/31 03:09:43;;;;;;;7.55;2.35;;;10.90;99.90;;;;;;5069346;28;20051;-83
2023/03/31 03:12:17;;;;;;;8.90;3.00;;;10.90;99.90;;;;;;5069664;28;20505;-83
2023/03/31 03:14:47;;;;;;;9.73;2.78;;;10.90;99.90;;;;;;5052795;28;20048;-83
2023/03/31 03:17:19;;;;;;;8.80;3.20;;;10.90;99.90;;;;;;5069452;28;20105;-83
2023/03/31 03:19:53;;;;;;;6.10;2.53;;;10.90;99.90;;;;;;5068094;28;20090;-82
2023/03/31 03:22:20;;;;;;;10.02;2.60;;;10.90;99.90;;;;;;5052513;28;20066;-83
2023/03/31 03:24:48;;;;;;;7.95;2.38;;;10.90;99.90;;;;;;5068304;28;20079;-83
2023/03/31 03:27:14;;;;;;;11.73;4.10;;;10.90;99.90;;;;;;5052379;28;20084;-83
2023/03/31 03:29:42;;;;;;;11.18;3.28;;;10.90;99.90;;;;;;5052519;28;20131;-83
2023/03/31 03:32:09;;;;;;;6.60;2.80;;;10.90;99.90;;;;;;5065329;28;20116;-82
2023/03/31 03:34:36;;;;;;;11.00;3.13;;;10.80;99.90;;;;;;5045998;28;20052;-83
2023/03/31 03:37:02;;;;;;;6.78;2.10;;;10.80;99.90;;;;;;5066945;28;20048;-84
2023/03/31 03:39:29;;;;;;;11.27;3.65;;;10.80;99.90;;;;;;5063671;28;20177;-83
2023/03/31 03:41:56;;;;;;;8.15;2.58;;;10.70;99.90;;;;;;5088359;28;20051;-83
2023/03/31 03:44:23;;;;;;;9.75;2.65;;;10.70;99.90;;;;;;5080594;28;20052;-83
2023/03/31 03:46:50;;;;;;;6.40;2.17;;;10.70;99.90;;;;;;5088236;28;20617;-84
2023/03/31 03:49:17;;;;;;;4.45;1.95;;;10.70;99.90;;;;;;5087050;28;20044;-84
2023/03/31 03:51:43;;;;;;;6.32;2.42;;;10.70;99.90;;;;;;5087253;28;20047;-84
2023/03/31 03:54:10;;;;;;;4.30;1.77;;;10.70;99.90;;;;;;5081621;28;20043;-83
2023/03/31 03:56:37;;;;;;;6.70;1.70;;;10.60;99.90;;;;;;5059947;28;20040;-85
2023/03/31 03:59:05;;;;;;;5.43;2.00;;;10.60;99.90;;;;;;5082854;28;20579;-84
2023/03/31 04:01:32;;;;;;;3.58;1.60;;;10.60;99.90;;;;;;5085018;28;20051;-85
2023/03/31 04:03:59;;;;;;;6.35;2.03;;;10.60;99.90;;;;;;5075216;28;20142;-84
2023/03/31 04:06:26;;;;;;;8.45;3.42;;;10.50;99.90;;;;;;5073791;28;20487;-85
2023/03/31 04:08:52;;;;;;;7.75;2.30;;;10.50;99.90;;;;;;5073929;28;20078;-85
2023/03/31 04:11:19;;;;;;;9.35;2.55;;;10.50;99.90;;;;;;5091859;28;20055;-85
2023/03/31 04:13:46;;;;;;;10.05;3.25;;;10.50;99.90;;;;;;5072217;28;20086;-83
2023/03/31 04:16:12;;;;;;;8.23;3.40;;;10.60;99.90;;;;;;5089314;28;20056;-85
2023/03/31 04:18:42;;;;;;;8.70;2.33;;;10.50;99.90;;;;;;5071980;28;20527;-83
2023/03/31 04:21:11;;;;;;;6.50;2.63;;;10.50;99.90;;;;;;5070318;28;20048;-83
2023/03/31 04:23:41;;;;;;;8.57;2.72;;;10.50;99.90;;;;;;5054969;28;20065;-82
2023/03/31 04:26:11;;;;;;;7.45;2.25;;;10.60;99.90;;;;;;5040619;28;20636;-85
2023/03/31 04:28:41;;;;;;;9.13;2.67;;;10.50;99.90;;;;;;5051812;28;20127;-84
2023/03/31 04:31:08;;;;;;;7.15;3.00;;;10.50;99.90;;;;;;5069764;28;20194;-86
2023/03/31 04:33:38;;;;;;;7.22;2.15;;;10.50;99.90;;;;;;5065606;28;20419;-85
2023/03/31 04:36:16;;;;;;;6.85;2.72;;;10.50;99.90;;;;;;5073043;28;20052;-86
2023/03/31 04:38:49;;;;;;;4.65;2.05;;;10.60;99.90;;;;;;5091459;28;20044;-85
2023/03/31 04:41:16;;;;;;;7.22;2.42;;;10.60;99.90;;;;;;5065570;28;20123;-86
2023/03/31 04:43:43;;;;;;;6.72;1.88;;;10.50;99.90;;;;;;5048364;28;20052;-86
2023/03/31 04:46:10;;;;;;;6.20;1.98;;;10.50;99.90;;;;;;5064762;28;20050;-84
2023/03/31 04:48:37;;;;;;;4.35;1.70;;;10.50;99.90;;;;;;5066558;28;20356;-86
2023/03/31 04:51:04;;;;;;;4.28;1.50;;;10.50;99.90;;;;;;5046920;28;20048;-84
2023/03/31 04:53:31;;;;;;;3.75;1.92;;;10.50;99.90;;;;;;5067306;28;20094;-85
2023/03/31 04:55:58;;;;;;;3.92;1.67;;;10.40;99.90;;;;;;5052309;28;20051;-84
2023/03/31 04:58:25;;;;;;;3.80;1.38;;;10.40;99.90;;;;;;5054034;28;20056;-84
2023/03/31 05:00:52;;;;;;;4.88;1.77;;;10.40;99.90;;;;;;5070712;28;20079;-84
2023/03/31 05:03:19;;;;;;;3.25;1.23;;;10.50;99.90;;;;;;5043578;28;20055;-85
2023/03/31 05:05:46;;;;;;;3.15;1.13;;;10.40;99.90;;;;;;5049306;28;20105;-84
2023/03/31 05:08:12;;;;;;;2.90;1.20;;;10.50;99.90;;;;;;5051601;28;20044;-86
2023/03/31 05:10:39;;;;;;;3.30;1.23;;;10.40;99.90;;;;;;5069868;28;20151;-84
2023/03/31 05:13:09;;;;;;;3.28;1.05;;;10.40;99.90;;;;;;5068006;28;20125;-85
2023/03/31 05:15:39;;;;;;;2.20;0.90;;;10.50;99.90;;;;;;5051951;28;20047;-86
2023/03/31 05:18:06;;;;;;;3.70;0.93;;;10.50;99.90;;;;;;5055986;28;20055;-84
2023/03/31 05:20:33;;;;;;;3.20;0.80;;;10.40;99.90;;;;;;5065605;28;20127;-86
2023/03/31 05:23:00;;;;;;;3.60;1.10;;;10.40;99.90;;;;;;5058949;28;20084;-86
2023/03/31 05:25:31;;;;;;;2.85;1.20;;;10.40;99.90;;;;;;5046736;28;20166;-86
2023/03/31 05:27:58;;;;;;;1.25;0.75;;;10.40;99.90;;;;;;5065919;28;20059;-87
2023/03/31 05:30:26;;;;;;;1.65;0.98;;;10.50;99.90;;;;;;5065495;28;20083;-85
2023/03/31 05:32:52;;;;;;;1.50;0.60;;;10.50;99.90;;;;;;5070548;28;20741;-86
2023/03/31 05:35:19;;;;;;;2.22;1.02;;;10.50;99.90;;;;;;5046138;28;20075;-85
2023/03/31 05:37:46;;;;;;;1.98;0.63;;;10.40;99.90;;;;;;5075246;28;20050;-84
2023/03/31 05:40:13;;;;;;;2.50;1.02;;;10.50;99.90;;;;;;5065064;28;20085;-84
2023/03/31 05:42:40;;;;;;;3.95;1.80;;;10.50;99.90;;;;;;5081326;28;20578;-84
2023/03/31 05:45:07;;;;;;;4.57;1.60;;;10.50;99.90;;;;;;5041943;28;20084;-85
2023/03/31 05:47:35;;;;;;;2.47;1.00;;;10.50;99.90;;;;;;5058695;28;20139;-84
2023/03/31 05:50:06;;;;;;;5.10;1.77;;;10.50;99.90;;;;;;5071709;28;20055;-84
2023/03/31 05:52:33;;;;;;;5.95;2.17;;;10.50;99.90;;;;;;5070952;28;20174;-85
2023/03/31 05:55:00;;;;;;;5.60;1.90;;;10.40;99.90;;;;;;5074793;28;20412;-84
2023/03/31 05:57:27;;;;;;;5.60;1.55;;;10.50;99.90;;;;;;5045959;28;20066;-84
2023/03/31 05:59:54;;;;;;;5.53;1.83;;;10.40;99.90;;;;;;5082157;28;20624;-84
2023/03/31 06:02:21;;;;;;;3.97;1.50;;;10.50;99.90;;;;;;5074985;28;20645;-83
2023/03/31 06:04:47;;;;;;;2.28;1.08;;;10.50;99.90;;;;;;5080257;28;20051;-78
2023/03/31 06:07:16;;;;;;;4.20;1.60;;;10.50;99.90;;;;;;5042572;28;20051;-79
2023/03/31 06:09:44;;;;;;;2.97;1.13;;;10.50;99.90;;;;;;5024193;28;20048;-79
2023/03/31 06:12:11;;;;;;;2.40;1.13;;;10.40;99.90;;;;;;5053968;28;20052;-79
2023/03/31 06:14:38;;;;;;;2.80;1.17;;;10.40;99.90;;;;;;5039681;28;20526;-78
2023/03/31 06:17:05;;;;;;;3.88;1.40;;;10.40;99.90;;;;;;5055879;28;20040;-78
2023/03/31 06:19:33;;;;;;;3.78;1.23;;;10.40;99.90;;;;;;5043687;28;20506;-79
2023/03/31 06:22:00;;;;;;;1.80;1.13;;;10.40;99.90;;;;;;5046388;28;20074;-79
2023/03/31 06:24:27;;;;;;;4.32;1.10;;;10.40;99.90;;;;;;5039313;28;20049;-79
2023/03/31 06:26:54;;;;;;;1.50;0.77;;;10.40;99.90;;;;;;5050999;28;20652;-78
2023/03/31 06:29:20;;;;;;;1.85;0.90;;;10.40;99.90;;;;;;5063662;28;20040;-79
2023/03/31 06:31:48;;;;;;;2.85;0.95;;;10.40;99.90;;;;;;5041735;28;20079;-79
2023/03/31 06:34:15;;;;;;;2.13;0.88;;;10.40;99.90;;;;;;5057364;28;20056;-79
2023/03/31 06:36:44;;;;;;;3.03;1.13;;;10.40;99.90;;;;;;5042448;28;20543;-79
2023/03/31 06:39:11;;;;;;;3.13;1.08;;;10.40;99.90;;;;;;5025918;28;20040;-79
2023/03/31 06:41:38;;;;;;;5.18;1.52;;;10.40;99.90;;;;;;5060287;28;20056;-80
2023/03/31 06:44:04;;;;;;;3.53;1.38;;;10.40;99.90;;;;;;5041950;28;20052;-79
2023/03/31 06:46:31;;;;;;;1.88;1.05;;;10.40;99.90;;;;;;5050120;28;20051;-80
2023/03/31 06:48:59;;;;;;;5.55;1.70;;;10.50;99.90;;;;;;5067400;28;20048;-79
2023/03/31 06:51:25;;;;;;;5.45;1.70;;;10.50;99.90;;;;;;5056133;28;20054;-79
2023/03/31 06:53:52;;;;;;;3.28;1.30;;;10.50;99.90;;;;;;5070863;28;20117;-80
2023/03/31 06:56:19;;;;;;;4.40;1.25;;;10.60;99.90;;;;;;5046964;28;20057;-78
2023/03/31 06:58:49;;;;;;;4.22;1.92;;;10.60;99.90;;;;;;5051364;28;20052;-81
2023/03/31 07:01:16;;;;;;;7.10;1.90;;;10.60;99.90;;;;;;5056784;28;20052;-80
2023/03/31 07:03:43;;;;;;;5.95;2.35;;;10.60;99.90;;;;;;5036253;28;20514;-80
2023/03/31 07:06:10;;;;;;;6.00;1.70;;;10.60;99.90;;;;;;5057078;28;20117;-80
2023/03/31 07:08:37;;;;;;;5.97;1.58;;;10.70;99.90;;;;;;5050234;28;20142;-80
2023/03/31 07:11:04;;;;;;;8.05;2.50;;;10.60;99.90;;;;;;5041871;28;20048;-80
2023/03/31 07:13:31;;;;;;;5.97;1.80;;;10.70;99.90;;;;;;5077516;28;20452;-81
2023/03/31 07:15:58;;;;;;;5.57;1.73;;;10.70;99.90;;;;;;5080755;28;20431;-80
2023/03/31 07:18:30;;;;;;;5.40;2.33;;;10.70;99.90;;;;;;5060222;28;20588;-80
2023/03/31 07:21:00;;;;;;;5.35;1.73;;;10.70;99.90;;;;;;5055739;28;20056;-81
2023/03/31 07:23:27;;;;;;;5.03;1.60;;;10.70;99.90;;;;;;5046257;28;20146;-81
2023/03/31 07:25:54;;;;;;;6.57;2.10;;;10.70;99.90;;;;;;5046540;28;20052;-81
2023/03/31 07:28:21;;;;;;;5.88;1.95;;;10.70;99.90;;;;;;5047053;28;20087;-82
2023/03/31 07:30:47;;;;;;;9.88;2.53;;;10.80;99.90;;;;;;5046772;28;20059;-80
2023/03/31 07:33:14;;;;;;;6.07;2.33;;;10.80;99.90;;;;;;5046906;28;20061;-81
2023/03/31 07:35:41;;;;;;;6.32;2.00;;;10.90;99.90;;;;;;5045382;28;20044;-81
2023/03/31 07:38:09;;;;;;;6.53;2.33;;;10.90;99.90;;;;;;5059135;28;20052;-80
2023/03/31 07:40:36;;;;;;;5.75;2.30;;;10.90;99.90;;;;;;5058954;28;20133;-80
2023/03/31 07:43:02;;;;;;;7.30;2.53;;;10.90;99.90;;;;;;5036252;28;20048;-81
2023/03/31 07:45:30;;;;;;;6.05;1.98;;;10.90;99.90;;;;;;5062344;28;20136;-80
2023/03/31 07:47:57;;;;;;;6.28;2.03;;;10.90;99.90;;;;;;5046669;28;20109;-81
2023/03/31 07:50:24;;;;;;;6.00;2.08;;;10.90;99.90;;;;;;5059385;28;20051;-81
2023/03/31 07:52:51;;;;;;;4.60;1.55;;;10.90;99.90;;;;;;5039741;28;20064;-81
2023/03/31 07:55:18;;;;;;;4.50;1.85;;;10.90;99.90;;;;;;5061948;28;20051;-81
2023/03/31 07:57:46;;;;;;;8.10;2.63;;;11.00;99.90;;;;;;5063108;28;20141;-81
2023/03/31 08:00:14;;;;;;;10.73;3.25;;;11.00;99.90;;;;;;5043173;28;20051;-80
2023/03/31 08:02:41;;;;;;;6.35;3.08;;;11.00;99.90;;;;;;5029350;28;20237;-80
2023/03/31 08:05:10;;;;;;;9.60;2.67;;;11.00;99.90;;;;;;5056208;28;20048;-81
2023/03/31 08:07:38;;;;;;;5.85;2.38;;;11.10;99.90;;;;;;5051626;28;20048;-82
2023/03/31 08:10:06;;;;;;;5.25;2.42;;;11.20;99.90;;;;;;5057724;28;20058;-83
2023/03/31 08:12:33;;;;;;;9.15;2.60;;;11.30;99.90;;;;;;5057033;28;20452;-83
2023/03/31 08:15:00;;;;;;;7.50;2.58;;;11.30;99.90;;;;;;5079346;28;20692;-83
2023/03/31 08:17:27;;;;;;;6.47;2.40;;;11.30;99.90;;;;;;5062510;28;20139;-83
2023/03/31 08:19:53;;;;;;;7.45;2.05;;;11.40;99.90;;;;;;5061316;28;20086;-83
2023/03/31 08:22:22;;;;;;;4.32;1.80;;;11.40;99.90;;;;;;5059931;28;20071;-83
2023/03/31 08:24:49;;;;;;;6.75;2.17;;;11.50;99.90;;;;;;5075004;28;20090;-83
2023/03/31 08:27:16;;;;;;;7.03;2.05;;;11.50;99.90;;;;;;5057439;28;20140;-83
2023/03/31 08:29:43;;;;;;;6.22;2.20;;;11.50;99.90;;;;;;5067863;28;20512;-83
2023/03/31 08:32:09;;;;;;;6.57;2.65;;;11.50;99.90;;;;;;5059883;28;20055;-84
2023/03/31 08:34:36;;;;;;;7.15;2.05;;;11.40;99.90;;;;;;5041463;28;20052;-83
2023/03/31 08:37:03;;;;;;;6.68;2.28;;;11.40;99.90;;;;;;5056865;28;20540;-83
2023/03/31 08:39:33;;;;;;;7.80;1.98;;;11.50;99.90;;;;;;5066429;28;20051;-80
2023/03/31 08:42:10;;;;;;;6.30;2.08;;;11.50;99.90;;;;;;5059406;28;20044;-83
2023/03/31 08:44:57;;;;;;;6.85;1.90;;;11.50;99.90;;;;;;5041586;28;20059;-83
2023/03/31 08:47:24;;;;;;;9.05;3.22;;;11.50;99.90;;;;;;5060407;28;20498;-83
2023/03/31 08:49:55;;;;;;;7.97;2.58;;;11.50;99.90;;;;;;5027414;28;20059;-82
2023/03/31 08:52:25;;;;;;;4.93;2.17;;;11.50;99.90;;;;;;5057528;28;20284;-82
2023/03/31 08:54:55;;;;;;;5.18;2.15;;;11.60;99.90;;;;;;5040865;28;20696;-83
2023/03/31 08:57:29;;;;;;;6.40;2.45;;;11.60;99.90;;;;;;5048478;28;20087;-83
2023/03/31 09:00:05;;;;;;;6.57;2.10;;;11.60;99.90;;;;;;5011081;28;20544;-83
2023/03/31 09:02:47;;;;;;;4.55;1.95;;;11.60;99.90;;;;;;5037757;28;20051;-83
2023/03/31 09:05:33;;;;;;;6.05;2.22;;;11.60;99.90;;;;;;5029668;28;20094;-82
2023/03/31 09:08:26;;;;;;;7.97;2.42;;;11.60;99.90;;;;;;5062733;28;20060;-81
2023/03/31 09:11:13;;;;;;;6.18;2.45;;;11.60;99.90;;;;;;5023034;28;20345;-81
2023/03/31 09:13:50;;;;;;;5.63;1.95;;;11.60;99.90;;;;;;5049916;28;20107;-81
2023/03/31 09:16:41;;;;;;;4.45;1.70;;;11.60;99.90;;;;;;5058115;28;20048;-82
2023/03/31 09:19:14;;;;;;;9.02;2.42;;;11.50;99.90;;;;;;5061578;28;20049;-81
2023/03/31 09:21:42;;;;;;;;;;;11.50;99.90;;;;;;5024455;28;20135;-82
2023/03/31 09:24:34;;;;;;;6.53;2.55;;;11.40;99.90;;;;;;5068897;28;20010;-82
2023/03/31 09:27:02;;;;;;;7.63;2.38;;;11.40;99.90;;;;;;5021764;28;20557;-81
2023/03/31 09:29:37;;;;;;;5.97;2.05;;;11.40;99.90;;;;;;5019732;28;20048;-83
2023/03/31 09:32:20;;;;;;;6.28;2.10;;;11.30;99.90;;;;;;5026107;28;20045;-82
2023/03/31 09:34:50;;;;;;;5.93;2.20;;;11.20;99.90;;;;;;5036564;28;20135;-82
2023/03/31 09:37:17;;;;;;;5.97;2.67;;;11.20;99.90;;;;;;5024452;28;20127;-84
2023/03/31 09:39:44;;;;;;;6.57;2.75;;;11.10;99.90;;;;;;5023591;28;20053;-83
2023/03/31 09:42:12;;;;;;;6.85;2.92;;;11.10;99.90;;;;;;5015965;28;20128;-83
2023/03/31 09:44:41;;;;;;;6.10;2.42;;;11.10;99.90;;;;;;5007372;28;20049;-88
2023/03/31 09:47:15;;;;;;;6.18;2.20;;;11.10;99.90;;;;;;5039553;28;20144;-82
2023/03/31 09:49:45;;;;;;;6.20;2.33;;;11.20;99.90;;;;;;5039984;28;20076;-82
2023/03/31 09:52:29;;;;;;;5.80;2.80;;;11.20;99.90;;;;;;5026405;28;20134;-82
2023/03/31 09:55:01;;;;;;;8.50;2.78;;;11.20;99.90;;;;;;5007750;28;20085;-83
2023/03/31 09:57:30;;;;;;;5.30;2.22;;;11.30;99.90;;;;;;5038816;28;20086;-82
2023/03/31 10:00:21;;;;;;;6.88;1.88;;;11.40;99.90;;;;;;5040124;28;20113;-83
2023/03/31 10:02:47;;;;;;;5.05;2.22;;;11.50;99.90;;;;;;5028724;28;20048;-82
2023/03/31 10:05:24;;;;;;;4.60;1.38;;;11.60;99.90;;;;;;5045708;28;20135;-82
2023/03/31 10:07:52;;;;;;;7.43;2.40;;;11.60;99.90;;;;;;5044520;28;20564;-83
2023/03/31 10:10:31;;;;;;;7.88;2.50;;;11.70;99.90;;;;;;5029870;28;20048;-83
2023/03/31 10:12:59;;;;;;;7.30;2.45;;;11.70;99.90;;;;;;5000649;28;20049;-82
2023/03/31 10:15:27;;;;;;;6.07;2.10;;;11.70;99.90;;;;;;5021467;28;20044;-82
2023/03/31 10:17:54;;;;;;;5.47;2.33;;;11.60;99.90;;;;;;5046523;28;20143;-82
2023/03/31 10:20:33;;;;;;;6.47;2.53;;;11.60;99.90;;;;;;5013899;28;20045;-83
2023/03/31 10:23:23;;;;;;;5.38;1.98;;;11.60;99.90;;;;;;5031304;28;20435;-82
2023/03/31 10:25:50;;;;;;;5.13;2.00;;;11.60;99.90;;;;;;5036572;28;20053;-83
2023/03/31 10:28:18;;;;;;;3.80;1.95;;;11.60;99.90;;;;;;5020971;28;20052;-82
2023/03/31 10:30:48;;;;;;;4.35;1.63;;;11.60;99.90;;;;;;5004701;28;20052;-83
2023/03/31 10:33:21;;;;;;;4.47;1.60;;;11.60;99.90;;;;;;5044494;28;20122;-82
2023/03/31 10:35:55;;;;;;;5.75;2.67;;;11.50;99.90;;;;;;5028404;28;20052;-83
2023/03/31 10:38:26;;;;;;;;;;;11.50;99.90;;;;;;5049109;28;20045;-83
2023/03/31 10:40:54;;;;;;;5.45;1.70;;;11.50;99.90;;;;;;5036165;28;19957;-82
2023/03/31 10:43:38;;;;;;;5.50;2.20;;;11.60;99.90;;;;;;5001335;28;20605;-84
2023/03/31 10:46:05;;;;;;;4.88;1.67;;;11.60;99.90;;;;;;5011533;28;20081;-83
2023/03/31 10:48:34;;;;;;;5.35;1.90;;;11.60;99.90;;;;;;5016971;28;20053;-83
2023/03/31 10:51:10;;;;;;;5.10;2.00;;;11.70;99.90;;;;;;5019086;28;20071;-83
2023/03/31 10:53:47;;;;;;;4.57;1.70;;;11.80;99.90;;;;;;5044320;28;20057;-83
2023/03/31 10:56:36;;;;;;;5.10;1.60;;;11.90;99.90;;;;;;5060853;28;20058;-83
2023/03/31 10:59:39;;;;;;;5.68;1.92;;;12.00;99.90;;;;;;5063642;28;20529;-83
2023/03/31 11:02:16;;;;;;;7.05;2.20;;;12.10;99.90;;;;;;5063261;28;20143;-83
2023/03/31 11:05:12;;;;;;;3.53;1.40;;;12.10;99.90;;;;;;5061118;28;20040;-81
2023/03/31 11:07:57;;;;;;;5.03;1.73;;;12.20;99.90;;;;;;5057171;28;20152;-83
2023/03/31 11:10:35;;;;;;;3.92;1.30;;;12.20;99.90;;;;;;5053946;28;20092;-82
2023/03/31 11:13:36;;;;;;;3.33;1.40;;;12.20;99.90;;;;;;5060116;28;20151;-83
2023/03/31 11:16:15;;;;;;;4.93;1.67;;;12.30;99.90;;;;;;5058251;28;20166;-82
2023/03/31 11:18:51;;;;;;;2.58;0.90;;;12.30;99.90;;;;;;5042599;28;20048;-82
2023/03/31 11:21:25;;;;;;;3.15;1.15;;;12.30;99.90;;;;;;5056939;28;20048;-83
2023/03/31 11:23:52;;;;;;;3.83;1.27;;;12.30;99.90;;;;;;5060866;28;20523;-83
2023/03/31 11:26:29;;;;;;;2.60;1.00;;;12.40;99.90;;;;;;5059693;28;20058;-83
2023/03/31 11:29:10;;;;;;;1.98;0.80;;;12.40;99.90;;;;;;5059765;28;20496;-82
2023/03/31 11:32:13;;;;;;;1.58;0.70;;;12.50;99.90;;;;;;5059620;28;20442;-83
2023/03/31 11:34:58;;;;;;;1.38;0.60;;;12.60;99.90;;;;;;5027205;28;20471;-81
2023/03/31 11:37:49;;;;;;;1.50;0.50;;;12.60;99.90;;;;;;5061510;28;20572;-82
2023/03/31 11:40:39;;;;;;;1.85;0.90;;;12.60;99.90;;;;;;5047986;28;20102;-82
2023/03/31 11:43:11;;;;;;;1.73;0.60;;;12.50;99.90;;;;;;5058600;28;20045;-80
2023/03/31 11:46:07;;;;;;;0.82;0.47;;;12.40;99.90;;;;;;5055444;28;20071;-84
2023/03/31 11:48:39;;;;;;;1.05;0.52;;;12.30;99.90;;;;;;5020446;28;20439;-82
2023/03/31 11:51:10;;;;;;;1.67;0.50;;;12.30;99.90;;;;;;5053040;28;20045;-82
2023/03/31 11:53:37;;;;;;;0.73;0.45;;;12.30;99.90;;;;;;5040517;28;20149;-81
2023/03/31 11:56:06;;;;;;;0.70;0.60;;;12.40;99.90;;;;;;5058733;28;20052;-82
2023/03/31 11:58:43;;;;;;;0.65;0.40;;;12.40;99.90;;;;;;5028434;28;20474;-85
2023/03/31 12:01:23;;;;;;;1.38;0.50;;;12.40;99.90;;;;;;5050041;28;20124;-88
2023/03/31 12:04:24;;;;;;;2.35;0.60;;;12.40;99.90;;;;;;5058392;28;20088;-90
2023/03/31 12:06:51;;;;;;;2.08;0.52;;;12.40;99.90;;;;;;5039867;28;20453;-89
2023/03/31 12:09:49;;;;;;;0.77;0.40;;;12.60;99.90;;;;;;5026712;28;20407;-78
2023/03/31 12:12:19;;;;;;;0.77;0.50;;;12.60;99.90;;;;;;5057199;28;20131;-80
2023/03/31 12:15:22;;;;;;;1.05;0.52;;;12.70;99.90;;;;;;5056157;28;20120;-80
2023/03/31 12:18:15;;;;;;;2.72;0.90;;;12.80;99.90;;;;;;5027456;28;20057;-80
2023/03/31 12:21:07;;;;;;;1.02;0.50;;;12.80;99.90;;;;;;5043825;28;20060;-80
2023/03/31 12:23:38;;;;;;;1.48;0.70;;;12.80;99.90;;;;;;5040342;28;20049;-77
2023/03/31 12:26:10;;;;;;;4.10;1.27;;;12.80;99.90;;;;;;5026320;28;20048;-77
2023/03/31 12:28:37;;;;;;;0.82;0.57;;;12.80;99.90;;;;;;5056522;28;20114;-81
2023/03/31 12:31:05;;;;;;;0.55;0.55;;;12.80;99.90;;;;;;5025197;28;20133;-78
2023/03/31 12:33:42;;;;;;;0.93;0.68;;;12.80;99.90;;;;;;5040051;28;20109;-81
2023/03/31 12:36:12;;;;;;;1.20;0.68;;;12.90;99.90;;;;;;5041825;28;20050;-80
2023/03/31 12:38:54;;;;;;;1.33;0.60;;;12.90;99.90;;;;;;5057273;28;20044;-82
2023/03/31 12:41:27;;;;;;;1.40;0.60;;;13.00;99.90;;;;;;5057071;28;20048;-80
2023/03/31 12:44:12;;;;;;;1.80;0.77;;;13.00;99.90;;;;;;5055472;28;20451;-82
2023/03/31 12:47:11;;;;;;;1.02;0.75;;;13.00;99.90;;;;;;5045042;28;20056;-82
2023/03/31 12:49:58;;;;;;;0.60;0.52;;;13.00;99.90;;;;;;5051918;28;20057;-81
2023/03/31 12:52:57;;;;;;;1.23;0.73;;;13.10;99.90;;;;;;5024955;28;20055;-81
2023/03/31 12:55:47;;;;;;;2.72;0.70;;;13.30;99.90;;;;;;5024635;28;20141;-81
2023/03/31 12:58:23;;;;;;;1.40;1.02;;;13.60;99.90;;;;;;5043537;28;20299;-81
2023/03/31 13:01:20;;;;;;;1.63;0.93;;;13.90;99.90;;;;;;5056210;28;20056;-80
2023/03/31 13:04:16;;;;;;;1.20;0.90;;;14.10;99.90;;;;;;5051234;28;20063;-80
2023/03/31 13:06:50;;;;;;;0.85;0.63;;;14.60;99.90;;;;;;5038885;28;20047;-81
2023/03/31 13:09:17;;;;;;;2.13;0.80;;;14.90;99.90;;;;;;5057006;28;20070;-81
2023/03/31 13:11:46;;;;;;;1.35;0.70;;;14.90;99.90;;;;;;5058627;28;20047;-82
2023/03/31 13:14:16;;;;;;;1.60;0.75;;;14.70;99.90;;;;;;5040256;28;20048;-85
2023/03/31 13:16:42;;;;;;;1.52;0.60;;;14.40;99.90;;;;;;5047095;28;20208;-86